Flight Track Log - Related Links

Times and Time Zones

All times are in EDT time to prevent confusion due to time zone crossing. See the UAL5915 flight status page for this flight to view local times or setup timezone preferences in your user account.

Time Position Orientation Groundspeed Altitude Reporting Facility
EDT Latitude Longitude Course Direction KTS MPH feet Rate Location/Type
Sat 03:24:33 PM 30.6697 -88.1603 North 197 227 3,100  Level Houston Center
Sat 03:25:35 PM 30.7278 -88.1708 351° North 211 243 5,200 2,081 Climbing Houston Center
Sat 03:26:37 PM 30.7878 -88.1861 348° North 218 251 7,400 2,129 Climbing Houston Center
Sat 03:27:39 PM 30.8636 -88.1953 354° North 237 273 9,600 1,854 Climbing Houston Center
Sat 03:28:40 PM 30.9200 -88.1553 31° Northeast 245 282 11,200 1,073 Climbing Houston Center
Sat 03:29:00 PM 31.3477 -87.9755 North  Level FlightAware Approximate
Sat 03:29:42 PM 30.9917 -88.1700 350° North 284 327 11,800  Level Houston Center
Sat 03:30:44 PM 31.0683 -88.2342 324° Northwest 341 392 13,100 1,742 Climbing Houston Center
Sat 03:31:46 PM 31.1458 -88.2939 327° Northwest 318 366 15,400 1,415 Climbing Houston Center
Sat 03:32:47 PM 31.2331 -88.3306 340° North 331 381 16,000 537 Climbing Houston Center
Sat 03:33:49 PM 31.3283 -88.3708 340° North 357 411 16,500 726 Climbing Houston Center
Sat 03:34:51 PM 31.4250 -88.4097 341° North 367 422 17,500 1,016 Climbing Houston Center
Sat 03:35:53 PM 31.5269 -88.4208 355° North 367 422 18,600 1,024 Climbing Houston Center
Sat 03:36:54 PM 31.6314 -88.4261 358° North 374 430 19,600 1,024 Climbing Houston Center
Sat 03:37:56 PM 31.7378 -88.4311 358° North 379 436 20,700 1,113 Climbing Houston Center
Sat 03:38:58 PM 31.8653 -88.4350 359° North 380 437 21,900 1,065 Climbing Houston Center
Sat 03:40:00 PM 31.9728 -88.4394 358° North 385 443 22,900 1,018 Climbing Houston Center
Sat 03:40:50 PM 32.0686 -88.4453 357° North 384 442 23,800 1,091 Climbing Memphis Center
Sat 03:41:50 PM 32.1772 -88.4503 358° North 384 442 24,900 1,000 Climbing Memphis Center
Sat 03:42:50 PM 32.2692 -88.4581 356° North 384 442 25,800 1,000 Climbing Memphis Center
Sat 03:43:50 PM 32.3756 -88.4533 North 379 436 26,900 1,050 Climbing Memphis Center
Sat 03:44:50 PM 32.4875 -88.4067 19° North 379 436 27,900 1,050 Climbing Memphis Center
Sat 03:45:50 PM 32.5850 -88.3628 21° North 374 430 29,000 1,050 Climbing Memphis Center
Sat 03:46:50 PM 32.6844 -88.3186 20° North 379 436 30,000 1,000 Climbing Memphis Center
Sat 03:47:50 PM 32.7839 -88.2717 22° Northeast 379 436 31,000 1,050 Climbing Memphis Center
Sat 03:48:50 PM 32.8875 -88.2272 20° North 384 442 32,100 1,041 Climbing Memphis Center
Sat 03:49:51 PM 32.9764 -88.1856 21° North 391 450 33,100 850 Climbing Memphis Center
Sat 03:50:50 PM 33.0739 -88.1408 21° North 385 443 33,800 655 Climbing Memphis Center
Sat 03:51:50 PM 33.1794 -88.0911 22° Northeast 385 443 34,400 550 Climbing Memphis Center
Sat 03:52:50 PM 33.2869 -88.0411 21° North 397 457 34,900 300 Climbing Memphis Center
Sat 03:53:50 PM 33.3986 -87.9908 21° North 408 470 35,000 50 Climbing Memphis Center
Sat 03:54:50 PM 33.5167 -87.9353 21° North 430 495 35,000  Level Memphis Center
Sat 03:55:50 PM 33.6367 -87.8797 21° North 449 517 35,000  Level Memphis Center
Sat 03:56:51 PM 33.7567 -87.8261 20° North 454 522 35,000  Level Memphis Center
Sat 03:57:50 PM 33.8928 -87.7572 23° Northeast 463 533 35,000  Level Memphis Center
Sat 03:58:50 PM 34.0128 -87.7008 21° North 463 533 35,000  Level Memphis Center
Sat 03:59:50 PM 34.1286 -87.6497 20° North 458 527 35,000  Level Memphis Center
Sat 04:00:50 PM 34.2503 -87.5931 21° North 463 533 35,000  Level Memphis Center
Sat 04:01:50 PM 34.3578 -87.5419 21° North 463 533 35,000  Level Memphis Center
Sat 04:02:50 PM 34.4817 -87.4847 21° North 468 539 35,000  Level Memphis Center
Sat 04:03:50 PM 34.5992 -87.4303 21° North 462 532 35,000  Level Memphis Center
Sat 04:04:50 PM 34.7231 -87.3706 22° Northeast 462 532 35,000  Level Memphis Center
Sat 04:05:50 PM 34.8447 -87.3131 21° North 467 537 35,000  Level Memphis Center
Sat 04:06:50 PM 34.9706 -87.2553 21° North 474 545 35,000  Level Memphis Center
Sat 04:07:50 PM 35.1047 -87.1919 21° North 474 545 35,000  Level Memphis Center
Sat 04:08:50 PM 35.2303 -87.1286 22° Northeast 474 545 35,000  Level Memphis Center
Sat 04:09:50 PM 35.3558 -87.0706 21° North 474 545 35,000  Level Memphis Center
Sat 04:10:51 PM 35.4794 -87.0094 22° Northeast 469 540 35,000  Level Memphis Center
Sat 04:11:50 PM 35.6069 -86.9481 21° North 478 550 35,000  Level Memphis Center
Sat 04:12:50 PM 35.7344 -86.8839 22° Northeast 488 562 35,000  Level Memphis Center
Sat 04:13:50 PM 35.8619 -86.8197 22° Northeast 488 562 35,000  Level Memphis Center
Sat 04:14:50 PM 35.9853 -86.7581 22° Northeast 483 556 35,000  Level Memphis Center
Sat 04:15:50 PM 36.1108 -86.6958 22° Northeast 483 556 35,000  Level Memphis Center
Sat 04:16:50 PM 36.2358 -86.6261 24° Northeast 488 562 35,000  Level Memphis Center
Sat 04:17:50 PM 36.3672 -86.5556 23° Northeast 500 575 35,000  Level Memphis Center
Sat 04:18:50 PM 36.4942 -86.4875 23° Northeast 500 575 35,000  Level Memphis Center
Sat 04:19:50 PM 36.6172 -86.4197 24° Northeast 486 559 35,000  Level Memphis Center
Sat 04:20:50 PM 36.7381 -86.3517 24° Northeast 479 551 35,000  Level Memphis Center
Sat 04:21:50 PM 36.8589 -86.2858 24° Northeast 472 543 35,000  Level Memphis Center
Sat 04:22:30 PM 36.9200 -86.2508 25° Northeast 474 545 35,000  Level Indianapolis Center
Sat 04:23:30 PM 37.0436 -86.1808 24° Northeast 482 555 35,000  Level Indianapolis Center
Sat 04:24:31 PM 37.1703 -86.1100 24° Northeast 491 565 35,000  Level Indianapolis Center
Sat 04:25:34 PM 37.2967 -86.0389 24° Northeast 494 568 35,000  Level Indianapolis Center
Sat 04:26:35 PM 37.4467 -85.9522 25° Northeast 502 578 35,000  Level Indianapolis Center
Sat 04:27:36 PM 37.5644 -85.8881 23° Northeast 499 574 35,000  Level Indianapolis Center
Sat 04:28:37 PM 37.7056 -85.8644 North 514 592 35,000  Level Indianapolis Center
Sat 04:29:40 PM 37.8533 -85.8539 North 527 606 35,000  Level Indianapolis Center
Sat 04:30:41 PM 37.9981 -85.8436 North 523 602 35,000  Level Indianapolis Center
Sat 04:31:42 PM 38.1653 -85.8336 North 503 579 35,000  Level Indianapolis Center
Sat 04:32:45 PM 38.2994 -85.8256 North 488 562 35,000  Level Indianapolis Center
Sat 04:33:46 PM 38.4311 -85.8178 North 476 548 35,000  Level Indianapolis Center
Sat 04:34:46 PM 38.5600 -85.8086 North 467 537 35,000 -145 Level Indianapolis Center
Sat 04:35:50 PM 38.6786 -85.8017 North 462 532 34,700 -919 Descending Indianapolis Center
Sat 04:36:50 PM 38.8453 -85.7903 North 503 579 33,100 -1,355 Descending Indianapolis Center
Sat 04:37:54 PM 38.9942 -85.7806 North 533 613 31,900 -774 Descending Indianapolis Center
Sat 04:38:54 PM 39.1408 -85.7697 North 533 613 31,500 -843 Descending Indianapolis Center
Sat 04:39:55 PM 39.2800 -85.7603 North 511 588 30,200 -992 Descending Indianapolis Center
Sat 04:40:55 PM 39.4156 -85.7517 North 492 566 29,500 -1,016 Descending Indianapolis Center
Sat 04:41:59 PM 39.5533 -85.7425 North 499 574 28,100 -1,392 Descending Indianapolis Center
Sat 04:43:00 PM 39.7217 -85.7311 North 509 586 26,600 -1,033 Descending Indianapolis Center
Sat 04:44:01 PM 39.8567 -85.7222 North 496 571 26,000 -290 Descending Indianapolis Center
Sat 04:45:04 PM 39.9881 -85.7131 North 479 551 26,000  Level Indianapolis Center
Sat 04:46:05 PM 40.1208 -85.7050 North 481 554 26,000 -347 Level Indianapolis Center
Sat 04:47:05 PM 40.2569 -85.6947 North 489 563 25,300 -677 Descending Indianapolis Center
Sat 04:48:09 PM 40.3925 -85.6861 North 492 566 24,600 -595 Descending Indianapolis Center
Sat 04:49:16 PM 40.5489 -85.6975 357° North 479 551 24,000 -279 Descending Chicago Center
Sat 04:50:18 PM 40.6564 -85.7981 325° Northwest 481 554 24,000 -290 Level Chicago Center
Sat 04:51:20 PM 40.7433 -85.9664 304° West 489 563 23,400 -726 Descending Chicago Center
Sat 04:52:22 PM 40.8214 -86.1186 304° West 497 572 22,500 -677 Descending Chicago Center
Sat 04:53:24 PM 40.8983 -86.2681 304° West 493 567 22,000 -532 Descending Chicago Center
Sat 04:54:26 PM 40.9731 -86.4172 304° West 488 562 21,400 -968 Descending Chicago Center
Sat 04:55:28 PM 41.0472 -86.5628 304° West 480 552 20,000 -1,790 Descending Chicago Center
Sat 04:56:30 PM 41.1361 -86.7358 304° West 462 532 17,700 -1,839 Descending Chicago Center
Sat 04:57:32 PM 41.2000 -86.8681 303° West 439 505 16,200 -1,790 Descending Chicago Center
Sat 04:58:34 PM 41.2611 -86.9856 305° West 402 463 14,000 -2,293 Descending Chicago Center
Sat 04:59:35 PM 41.3219 -87.1083 303° West 398 458 11,500 -1,463 Descending Chicago Center
Sat 05:00:37 PM 41.3856 -87.2169 308° West 383 441 11,000 -242 Descending Chicago Center
Sat 05:01:39 PM 41.4625 -87.3092 318° Northwest 375 432 11,000 -145 Level Chicago Center
Sat 05:02:41 PM 41.5544 -87.4156 319° Northwest 371 427 10,700 -435 Descending Chicago Center
Sat 05:03:43 PM 41.6078 -87.4742 321° Northwest 325 374 10,100 -968 Descending Chicago Center
Sat 05:04:45 PM 41.6825 -87.5578 320° Northwest 296 341 8,700 -1,258 Descending Chicago Center
Sat 05:05:47 PM 41.7439 -87.6281 320° Northwest 295 339 7,500 -823 Descending Chicago Center
Sat 05:06:49 PM 41.8200 -87.7117 321° Northwest 298 343 7,000 -242 Descending Chicago Center
Sat 05:07:51 PM 41.8742 -87.7919 312° West 294 338 7,000  Level Chicago Center
Sat 05:08:52 PM 41.8875 -87.8950 280° West 288 331 7,000  Level Chicago Center
Sat 05:09:30 PM 41.9000 -87.9667 283° West 261 300 7,000 -612 Level Chicago TRACON
Sat 05:10:30 PM 41.9000 -88.0500 270° West 218 251 6,000 -1,200 Descending Chicago TRACON
Sat 05:11:30 PM 41.9000 -88.1167 270° West 204 235 4,600 -1,000 Descending Chicago TRACON
Sat 05:12:30 PM 41.9000 -88.2000 270° West 199 229 4,000 -400 Descending Chicago TRACON
Sat 05:13:00 PM 41.8989 -88.2322 267° West 203 234 4,000  Level Chicago Center
Sat 05:14:02 PM 41.8986 -88.3061 270° West 201 231 4,000  Level Chicago Center
Sat 05:15:04 PM 41.9050 -88.3803 277° West 218 251 4,000  Level Chicago Center
Sat 05:16:06 PM 41.9522 -88.3656 13° North 205 236 4,000  Level Chicago Center
Sat 05:17:08 PM 41.9669 -88.2981 74° East 196 226 4,000  Level Chicago Center
Sat 05:18:09 PM 41.9678 -88.2192 89° East 182 209 4,000  Level Chicago Center

Login

Don't have an account? Register now (free) for customized features, flight alerts, and more!